sensor_id;sensor_type;location;lat;lon;timestamp;pressure;altitude;pressure_sealevel;temperature;humidity
79203;BME280;68630;42.748;23.278;2024-01-25T00:00:26;96101.25;;;2.77;67.33
79203;BME280;68630;42.748;23.278;2024-01-25T00:03:00;96092.45;;;2.78;66.04
79203;BME280;68630;42.748;23.278;2024-01-25T00:05:31;96079.41;;;2.86;64.43
79203;BME280;68630;42.748;23.278;2024-01-25T00:08:06;96079.34;;;2.87;64.93
79203;BME280;68630;42.748;23.278;2024-01-25T00:10:39;96064.17;;;2.84;65.18
79203;BME280;68630;42.748;23.278;2024-01-25T00:13:13;96042.18;;;2.66;65.67
79203;BME280;68630;42.748;23.278;2024-01-25T00:15:41;96022.16;;;2.63;65.79
79203;BME280;68630;42.748;23.278;2024-01-25T00:18:10;96013.59;;;2.49;66.27
79203;BME280;68630;42.748;23.278;2024-01-25T00:20:41;96001.65;;;2.42;66.72
79203;BME280;68630;42.748;23.278;2024-01-25T00:23:11;96002.92;;;2.33;66.53
79203;BME280;68630;42.748;23.278;2024-01-25T00:25:43;96012.01;;;2.55;64.47
79203;BME280;68630;42.748;23.278;2024-01-25T00:28:21;96008.47;;;2.65;64.29
79203;BME280;68630;42.748;23.278;2024-01-25T00:30:54;96021.52;;;2.77;63.97
79203;BME280;68630;42.748;23.278;2024-01-25T00:33:21;96021.66;;;2.93;63.81
79203;BME280;68630;42.748;23.278;2024-01-25T00:38:55;96019.68;;;3.07;64.01
79203;BME280;68630;42.748;23.278;2024-01-25T00:41:27;96007.70;;;3.10;63.79
79203;BME280;68630;42.748;23.278;2024-01-25T00:44:01;96012.27;;;3.06;64.21
79203;BME280;68630;42.748;23.278;2024-01-25T00:46:28;96002.28;;;3.04;63.49
79203;BME280;68630;42.748;23.278;2024-01-25T00:49:00;96001.52;;;2.83;64.82
79203;BME280;68630;42.748;23.278;2024-01-25T00:51:29;95999.13;;;2.87;65.57
79203;BME280;68630;42.748;23.278;2024-01-25T00:53:58;95993.80;;;2.89;65.80
79203;BME280;68630;42.748;23.278;2024-01-25T00:56:30;96008.86;;;3.04;65.47
79203;BME280;68630;42.748;23.278;2024-01-25T00:59:00;96027.34;;;2.65;67.38
79203;BME280;68630;42.748;23.278;2024-01-25T01:01:34;96029.00;;;2.76;67.08
79203;BME280;68630;42.748;23.278;2024-01-25T01:04:06;96018.59;;;2.74;67.15
79203;BME280;68630;42.748;23.278;2024-01-25T01:06:38;96023.23;;;2.59;67.85
79203;BME280;68630;42.748;23.278;2024-01-25T01:09:15;96017.67;;;2.65;67.69
79203;BME280;68630;42.748;23.278;2024-01-25T01:11:45;96009.89;;;2.72;67.31
79203;BME280;68630;42.748;23.278;2024-01-25T01:14:15;95993.27;;;2.72;67.40
79203;BME280;68630;42.748;23.278;2024-01-25T01:16:46;95971.56;;;2.58;66.91
79203;BME280;68630;42.748;23.278;2024-01-25T01:19:22;95961.32;;;2.52;66.71
79203;BME280;68630;42.748;23.278;2024-01-25T01:21:54;95951.04;;;2.66;65.94
79203;BME280;68630;42.748;23.278;2024-01-25T01:24:26;95951.62;;;2.54;66.65
79203;BME280;68630;42.748;23.278;2024-01-25T01:26:55;95954.91;;;2.68;66.42
79203;BME280;68630;42.748;23.278;2024-01-25T01:29:26;95943.34;;;2.80;65.90
79203;BME280;68630;42.748;23.278;2024-01-25T01:31:53;95949.82;;;2.73;66.32
79203;BME280;68630;42.748;23.278;2024-01-25T01:34:25;95950.50;;;2.68;67.35
79203;BME280;68630;42.748;23.278;2024-01-25T01:36:58;95942.92;;;2.52;68.25
79203;BME280;68630;42.748;23.278;2024-01-25T01:39:28;95932.07;;;2.21;69.28
79203;BME280;68630;42.748;23.278;2024-01-25T01:42:03;95933.17;;;2.16;69.82
79203;BME280;68630;42.748;23.278;2024-01-25T01:44:31;95940.13;;;2.27;69.18
79203;BME280;68630;42.748;23.278;2024-01-25T01:47:03;95929.20;;;2.07;70.38
79203;BME280;68630;42.748;23.278;2024-01-25T01:49:35;95924.92;;;2.15;70.08
79203;BME280;68630;42.748;23.278;2024-01-25T01:52:07;95922.21;;;1.97;71.18
79203;BME280;68630;42.748;23.278;2024-01-25T01:54:41;95919.42;;;2.00;70.51
79203;BME280;68630;42.748;23.278;2024-01-25T01:57:08;95921.83;;;2.15;69.50
79203;BME280;68630;42.748;23.278;2024-01-25T01:59:40;95928.84;;;2.44;68.04
79203;BME280;68630;42.748;23.278;2024-01-25T02:02:11;95925.80;;;2.62;67.21
79203;BME280;68630;42.748;23.278;2024-01-25T02:04:45;95914.16;;;2.68;66.62
79203;BME280;68630;42.748;23.278;2024-01-25T02:07:16;95899.86;;;2.73;65.90
79203;BME280;68630;42.748;23.278;2024-01-25T02:09:49;95895.84;;;2.75;66.01
79203;BME280;68630;42.748;23.278;2024-01-25T02:12:18;95902.58;;;2.80;65.44
79203;BME280;68630;42.748;23.278;2024-01-25T02:14:48;95911.12;;;3.03;65.19
79203;BME280;68630;42.748;23.278;2024-01-25T02:17:16;95910.29;;;3.11;65.44
79203;BME280;68630;42.748;23.278;2024-01-25T02:19:45;95916.32;;;2.68;67.48
79203;BME280;68630;42.748;23.278;2024-01-25T02:22:17;95920.27;;;2.68;67.08
79203;BME280;68630;42.748;23.278;2024-01-25T02:24:47;95917.00;;;2.63;67.45
79203;BME280;68630;42.748;23.278;2024-01-25T02:27:24;95906.27;;;2.40;68.68
79203;BME280;68630;42.748;23.278;2024-01-25T02:29:53;95910.80;;;2.55;68.31
79203;BME280;68630;42.748;23.278;2024-01-25T02:32:24;95905.22;;;2.53;68.54
79203;BME280;68630;42.748;23.278;2024-01-25T02:34:53;95907.87;;;2.61;68.26
79203;BME280;68630;42.748;23.278;2024-01-25T02:37:27;95904.42;;;2.70;67.91
79203;BME280;68630;42.748;23.278;2024-01-25T02:39:58;95909.77;;;2.49;68.61
79203;BME280;68630;42.748;23.278;2024-01-25T02:42:27;95894.49;;;2.57;67.92
79203;BME280;68630;42.748;23.278;2024-01-25T02:44:56;95899.53;;;2.71;66.61
79203;BME280;68630;42.748;23.278;2024-01-25T02:47:25;95897.08;;;2.68;66.78
79203;BME280;68630;42.748;23.278;2024-01-25T02:49:55;95883.75;;;2.71;66.92
79203;BME280;68630;42.748;23.278;2024-01-25T02:52:24;95882.61;;;2.68;67.32
79203;BME280;68630;42.748;23.278;2024-01-25T02:54:53;95882.24;;;2.84;66.83
79203;BME280;68630;42.748;23.278;2024-01-25T02:57:27;95870.20;;;2.97;66.11
79203;BME280;68630;42.748;23.278;2024-01-25T03:00:02;95885.99;;;3.24;65.07
79203;BME280;68630;42.748;23.278;2024-01-25T03:02:32;95880.33;;;3.58;63.42
79203;BME280;68630;42.748;23.278;2024-01-25T03:05:01;95881.54;;;3.77;62.65
79203;BME280;68630;42.748;23.278;2024-01-25T03:07:35;95878.18;;;3.90;62.19
79203;BME280;68630;42.748;23.278;2024-01-25T03:10:08;95892.56;;;4.01;61.95
79203;BME280;68630;42.748;23.278;2024-01-25T03:12:41;95888.30;;;4.07;62.21
79203;BME280;68630;42.748;23.278;2024-01-25T03:15:13;95887.91;;;4.06;62.29
79203;BME280;68630;42.748;23.278;2024-01-25T03:22:55;95874.85;;;4.20;63.04
79203;BME280;68630;42.748;23.278;2024-01-25T03:25:31;95874.81;;;4.29;63.03
79203;BME280;68630;42.748;23.278;2024-01-25T03:28:02;95871.11;;;4.40;63.04
79203;BME280;68630;42.748;23.278;2024-01-25T03:30:43;95878.02;;;4.43;63.61
79203;BME280;68630;42.748;23.278;2024-01-25T03:33:15;95893.16;;;4.55;63.61
79203;BME280;68630;42.748;23.278;2024-01-25T03:35:49;95877.69;;;4.49;63.38
79203;BME280;68630;42.748;23.278;2024-01-25T03:38:21;95881.97;;;4.43;63.34
79203;BME280;68630;42.748;23.278;2024-01-25T03:40:54;95867.67;;;4.31;63.85
79203;BME280;68630;42.748;23.278;2024-01-25T03:43:34;95862.28;;;4.41;63.17
79203;BME280;68630;42.748;23.278;2024-01-25T03:46:05;95863.24;;;4.31;63.75
79203;BME280;68630;42.748;23.278;2024-01-25T03:48:35;95871.55;;;4.33;64.23
79203;BME280;68630;42.748;23.278;2024-01-25T03:51:18;95863.08;;;4.35;63.88
79203;BME280;68630;42.748;23.278;2024-01-25T03:53:56;95857.00;;;4.25;64.95
79203;BME280;68630;42.748;23.278;2024-01-25T03:56:26;95845.66;;;4.32;64.81
79203;BME280;68630;42.748;23.278;2024-01-25T03:58:56;95858.24;;;4.27;65.84
79203;BME280;68630;42.748;23.278;2024-01-25T04:01:28;95858.56;;;4.37;65.83
79203;BME280;68630;42.748;23.278;2024-01-25T04:04:02;95853.00;;;4.50;65.44
79203;BME280;68630;42.748;23.278;2024-01-25T04:06:38;95856.16;;;4.41;65.94
79203;BME280;68630;42.748;23.278;2024-01-25T04:09:17;95846.30;;;4.28;66.61
79203;BME280;68630;42.748;23.278;2024-01-25T04:11:59;95835.20;;;4.30;66.07
79203;BME280;68630;42.748;23.278;2024-01-25T04:14:31;95837.36;;;4.15;66.10
79203;BME280;68630;42.748;23.278;2024-01-25T04:17:00;95838.84;;;4.12;65.88
79203;BME280;68630;42.748;23.278;2024-01-25T04:19:32;95824.19;;;4.15;65.37
79203;BME280;68630;42.748;23.278;2024-01-25T04:22:03;95830.20;;;4.01;65.77
79203;BME280;68630;42.748;23.278;2024-01-25T04:24:34;95828.52;;;3.91;66.20
79203;BME280;68630;42.748;23.278;2024-01-25T04:27:11;95837.23;;;4.01;65.94
79203;BME280;68630;42.748;23.278;2024-01-25T04:29:43;95829.28;;;3.93;66.39
79203;BME280;68630;42.748;23.278;2024-01-25T04:32:12;95845.57;;;3.93;66.34
79203;BME280;68630;42.748;23.278;2024-01-25T04:34:43;95838.06;;;3.85;66.73
79203;BME280;68630;42.748;23.278;2024-01-25T04:37:14;95825.97;;;3.90;66.64
79203;BME280;68630;42.748;23.278;2024-01-25T04:39:48;95837.54;;;3.87;66.88
79203;BME280;68630;42.748;23.278;2024-01-25T04:42:25;95834.72;;;3.90;66.82
79203;BME280;68630;42.748;23.278;2024-01-25T04:44:56;95836.91;;;3.91;67.10
79203;BME280;68630;42.748;23.278;2024-01-25T04:47:25;95836.82;;;3.84;67.55
79203;BME280;68630;42.748;23.278;2024-01-25T04:50:03;95847.57;;;3.97;66.46
79203;BME280;68630;42.748;23.278;2024-01-25T04:52:40;95856.71;;;3.98;66.04
79203;BME280;68630;42.748;23.278;2024-01-25T04:55:16;95866.62;;;4.02;66.55
79203;BME280;68630;42.748;23.278;2024-01-25T04:57:48;95852.58;;;3.77;67.28
79203;BME280;68630;42.748;23.278;2024-01-25T05:00:20;95867.93;;;3.77;67.12
79203;BME280;68630;42.748;23.278;2024-01-25T05:02:55;95878.52;;;3.84;67.00
79203;BME280;68630;42.748;23.278;2024-01-25T05:05:27;95885.49;;;3.77;67.33
79203;BME280;68630;42.748;23.278;2024-01-25T05:07:56;95876.06;;;3.72;67.68
79203;BME280;68630;42.748;23.278;2024-01-25T05:10:26;95874.42;;;3.70;67.37
79203;BME280;68630;42.748;23.278;2024-01-25T05:12:55;95872.88;;;3.74;67.31
79203;BME280;68630;42.748;23.278;2024-01-25T05:15:25;95887.19;;;3.86;67.01
79203;BME280;68630;42.748;23.278;2024-01-25T05:17:54;95897.50;;;3.73;67.24
79203;BME280;68630;42.748;23.278;2024-01-25T05:20:29;95903.77;;;3.80;67.13
79203;BME280;68630;42.748;23.278;2024-01-25T05:23:01;95916.92;;;3.88;66.63
79203;BME280;68630;42.748;23.278;2024-01-25T05:25:34;95921.55;;;4.01;66.62
79203;BME280;68630;42.748;23.278;2024-01-25T05:28:05;95905.00;;;4.15;66.17
79203;BME280;68630;42.748;23.278;2024-01-25T05:30:37;95912.02;;;4.07;66.92
79203;BME280;68630;42.748;23.278;2024-01-25T05:33:05;95912.72;;;4.26;66.26
79203;BME280;68630;42.748;23.278;2024-01-25T05:35:36;95917.47;;;4.28;65.98
79203;BME280;68630;42.748;23.278;2024-01-25T05:38:10;95914.03;;;4.26;65.76
79203;BME280;68630;42.748;23.278;2024-01-25T05:40:37;95918.39;;;4.27;65.65
79203;BME280;68630;42.748;23.278;2024-01-25T05:43:10;95920.07;;;4.37;65.33
79203;BME280;68630;42.748;23.278;2024-01-25T05:45:39;95920.39;;;4.31;65.50
79203;BME280;68630;42.748;23.278;2024-01-25T05:48:08;95926.69;;;4.20;65.88
79203;BME280;68630;42.748;23.278;2024-01-25T05:50:37;95920.19;;;4.27;65.71
79203;BME280;68630;42.748;23.278;2024-01-25T05:53:07;95916.91;;;4.30;65.68
79203;BME280;68630;42.748;23.278;2024-01-25T05:55:43;95919.70;;;4.27;66.00
79203;BME280;68630;42.748;23.278;2024-01-25T05:58:45;95912.44;;;4.24;65.99
79203;BME280;68630;42.748;23.278;2024-01-25T06:01:18;95925.45;;;4.27;65.88
79203;BME280;68630;42.748;23.278;2024-01-25T06:03:46;95926.38;;;4.26;65.55
79203;BME280;68630;42.748;23.278;2024-01-25T06:06:15;95926.45;;;4.24;65.83
79203;BME280;68630;42.748;23.278;2024-01-25T06:08:47;95918.17;;;4.15;65.95
79203;BME280;68630;42.748;23.278;2024-01-25T06:11:24;95919.86;;;4.24;65.76
79203;BME280;68630;42.748;23.278;2024-01-25T06:14:06;95922.97;;;4.24;65.66
79203;BME280;68630;42.748;23.278;2024-01-25T06:16:35;95938.23;;;4.26;65.55
79203;BME280;68630;42.748;23.278;2024-01-25T06:19:05;95942.98;;;4.19;65.84
79203;BME280;68630;42.748;23.278;2024-01-25T06:21:34;95938.70;;;4.25;65.65
79203;BME280;68630;42.748;23.278;2024-01-25T06:24:06;95936.00;;;4.27;65.33
79203;BME280;68630;42.748;23.278;2024-01-25T06:26:35;95945.30;;;4.25;65.43
79203;BME280;68630;42.748;23.278;2024-01-25T06:29:04;95941.11;;;4.21;65.59
79203;BME280;68630;42.748;23.278;2024-01-25T06:31:46;95941.71;;;4.26;65.68
79203;BME280;68630;42.748;23.278;2024-01-25T06:34:17;95957.92;;;4.27;65.48
79203;BME280;68630;42.748;23.278;2024-01-25T06:36:46;95957.00;;;4.28;65.35
79203;BME280;68630;42.748;23.278;2024-01-25T06:39:14;95963.45;;;4.47;64.79
79203;BME280;68630;42.748;23.278;2024-01-25T06:41:42;95963.48;;;4.39;65.12
79203;BME280;68630;42.748;23.278;2024-01-25T06:44:11;95947.48;;;4.42;65.32
79203;BME280;68630;42.748;23.278;2024-01-25T06:46:44;95947.23;;;4.46;64.94
79203;BME280;68630;42.748;23.278;2024-01-25T06:49:19;95947.17;;;4.64;64.42
79203;BME280;68630;42.748;23.278;2024-01-25T06:51:48;95957.80;;;4.62;64.51
79203;BME280;68630;42.748;23.278;2024-01-25T06:57:25;95958.47;;;4.75;64.03
79203;BME280;68630;42.748;23.278;2024-01-25T06:59:58;95971.70;;;4.98;63.16
79203;BME280;68630;42.748;23.278;2024-01-25T07:02:35;95974.59;;;5.09;62.75
79203;BME280;68630;42.748;23.278;2024-01-25T07:05:04;95964.75;;;5.20;62.68
79203;BME280;68630;42.748;23.278;2024-01-25T07:07:35;95966.12;;;5.34;62.09
79203;BME280;68630;42.748;23.278;2024-01-25T07:10:06;95961.84;;;5.48;61.88
79203;BME280;68630;42.748;23.278;2024-01-25T07:12:36;95962.58;;;5.66;61.22
79203;BME280;68630;42.748;23.278;2024-01-25T07:15:08;95944.17;;;5.64;61.11
79203;BME280;68630;42.748;23.278;2024-01-25T07:17:40;95930.98;;;5.71;60.95
79203;BME280;68630;42.748;23.278;2024-01-25T07:20:08;95921.72;;;5.64;61.05
79203;BME280;68630;42.748;23.278;2024-01-25T07:22:43;95919.17;;;5.70;61.13
79203;BME280;68630;42.748;23.278;2024-01-25T07:25:16;95934.29;;;5.82;61.10
79203;BME280;68630;42.748;23.278;2024-01-25T07:27:43;95934.55;;;5.77;60.92
79203;BME280;68630;42.748;23.278;2024-01-25T07:30:16;95943.02;;;5.54;61.49
79203;BME280;68630;42.748;23.278;2024-01-25T07:32:46;95938.96;;;5.55;61.31
79203;BME280;68630;42.748;23.278;2024-01-25T07:35:14;95944.84;;;5.68;60.93
79203;BME280;68630;42.748;23.278;2024-01-25T07:37:43;95938.33;;;5.73;60.79
79203;BME280;68630;42.748;23.278;2024-01-25T07:40:15;95932.88;;;5.76;60.50
79203;BME280;68630;42.748;23.278;2024-01-25T07:42:55;95931.91;;;5.77;61.05
79203;BME280;68630;42.748;23.278;2024-01-25T07:45:30;95933.80;;;5.98;60.26
79203;BME280;68630;42.748;23.278;2024-01-25T07:47:59;95935.48;;;5.99;59.96
79203;BME280;68630;42.748;23.278;2024-01-25T07:50:26;95931.00;;;5.93;59.97
79203;BME280;68630;42.748;23.278;2024-01-25T07:53:00;95953.71;;;6.04;59.55
79203;BME280;68630;42.748;23.278;2024-01-25T07:55:26;95953.27;;;6.12;59.60
79203;BME280;68630;42.748;23.278;2024-01-25T07:57:53;95957.62;;;6.34;59.22
79203;BME280;68630;42.748;23.278;2024-01-25T08:00:26;95958.47;;;6.56;58.46
79203;BME280;68630;42.748;23.278;2024-01-25T08:06:32;95966.56;;;7.24;56.46
79203;BME280;68630;42.748;23.278;2024-01-25T08:09:02;95960.55;;;7.15;56.72
79203;BME280;68630;42.748;23.278;2024-01-25T08:11:38;95975.03;;;7.02;57.21
79203;BME280;68630;42.748;23.278;2024-01-25T08:14:09;95971.55;;;7.36;56.40
79203;BME280;68630;42.748;23.278;2024-01-25T08:16:44;95972.67;;;7.39;55.94
79203;BME280;68630;42.748;23.278;2024-01-25T08:19:12;95969.58;;;7.32;56.02
79203;BME280;68630;42.748;23.278;2024-01-25T08:21:42;95982.84;;;7.18;56.24
79203;BME280;68630;42.748;23.278;2024-01-25T08:24:13;95982.80;;;6.98;56.61
79203;BME280;68630;42.748;23.278;2024-01-25T08:26:49;95982.93;;;7.16;55.76
79203;BME280;68630;42.748;23.278;2024-01-25T08:29:23;95988.47;;;7.40;55.34
79203;BME280;68630;42.748;23.278;2024-01-25T08:31:50;95982.38;;;7.18;56.00
79203;BME280;68630;42.748;23.278;2024-01-25T08:34:27;95976.87;;;7.48;55.21
79203;BME280;68630;42.748;23.278;2024-01-25T08:36:51;95973.22;;;7.37;55.25
79203;BME280;68630;42.748;23.278;2024-01-25T08:39:19;95976.34;;;7.09;56.07
79203;BME280;68630;42.748;23.278;2024-01-25T08:41:47;95971.59;;;7.14;55.84
79203;BME280;68630;42.748;23.278;2024-01-25T08:44:21;95972.90;;;7.56;54.51
79203;BME280;68630;42.748;23.278;2024-01-25T08:46:47;95975.54;;;6.94;56.01
79203;BME280;68630;42.748;23.278;2024-01-25T08:49:23;95987.36;;;7.23;55.06
79203;BME280;68630;42.748;23.278;2024-01-25T08:51:56;95974.17;;;7.08;55.45
79203;BME280;68630;42.748;23.278;2024-01-25T08:54:29;95975.09;;;7.42;54.66
79203;BME280;68630;42.748;23.278;2024-01-25T08:57:04;95986.42;;;7.24;55.52
79203;BME280;68630;42.748;23.278;2024-01-25T09:02:09;95988.48;;;7.80;53.66
79203;BME280;68630;42.748;23.278;2024-01-25T09:04:41;95987.30;;;7.72;53.84
79203;BME280;68630;42.748;23.278;2024-01-25T09:07:31;95991.47;;;7.68;53.95
79203;BME280;68630;42.748;23.278;2024-01-25T09:09:58;95998.73;;;7.72;53.47
79203;BME280;68630;42.748;23.278;2024-01-25T09:12:46;95988.88;;;8.27;52.54
79203;BME280;68630;42.748;23.278;2024-01-25T09:15:02;95994.78;;;8.05;52.33
79203;BME280;68630;42.748;23.278;2024-01-25T09:17:31;95980.48;;;8.08;52.20
79203;BME280;68630;42.748;23.278;2024-01-25T09:20:00;95984.13;;;7.99;52.81
79203;BME280;68630;42.748;23.278;2024-01-25T09:22:32;95989.04;;;7.98;52.73
79203;BME280;68630;42.748;23.278;2024-01-25T09:25:00;95988.84;;;8.01;52.97
79203;BME280;68630;42.748;23.278;2024-01-25T09:27:27;95985.50;;;7.92;53.39
79203;BME280;68630;42.748;23.278;2024-01-25T09:29:56;95982.16;;;7.76;53.50
79203;BME280;68630;42.748;23.278;2024-01-25T09:32:27;95972.86;;;7.63;53.90
79203;BME280;68630;42.748;23.278;2024-01-25T09:34:58;95973.48;;;7.46;54.76
79203;BME280;68630;42.748;23.278;2024-01-25T09:37:32;95973.57;;;7.18;55.54
79203;BME280;68630;42.748;23.278;2024-01-25T09:40:02;95973.22;;;7.64;54.70
79203;BME280;68630;42.748;23.278;2024-01-25T09:45:24;95960.06;;;8.02;53.60
79203;BME280;68630;42.748;23.278;2024-01-25T09:47:52;95955.75;;;7.94;54.11
79203;BME280;68630;42.748;23.278;2024-01-25T09:50:19;95958.14;;;7.72;54.03
79203;BME280;68630;42.748;23.278;2024-01-25T09:52:54;95944.84;;;7.99;53.74
79203;BME280;68630;42.748;23.278;2024-01-25T09:55:19;95943.03;;;7.99;53.36
79203;BME280;68630;42.748;23.278;2024-01-25T09:57:49;95950.89;;;7.81;54.00
79203;BME280;68630;42.748;23.278;2024-01-25T10:00:18;95936.94;;;7.52;54.78
79203;BME280;68630;42.748;23.278;2024-01-25T10:02:48;95932.27;;;7.42;55.25
79203;BME280;68630;42.748;23.278;2024-01-25T10:05:17;95928.89;;;7.53;55.08
79203;BME280;68630;42.748;23.278;2024-01-25T10:07:48;95923.80;;;7.50;55.59
79203;BME280;68630;42.748;23.278;2024-01-25T10:10:15;95913.17;;;7.90;53.99
79203;BME280;68630;42.748;23.278;2024-01-25T10:12:44;95906.70;;;7.81;54.42
79203;BME280;68630;42.748;23.278;2024-01-25T10:15:14;95902.49;;;7.84;54.43
79203;BME280;68630;42.748;23.278;2024-01-25T10:17:45;95903.30;;;8.05;53.88
79203;BME280;68630;42.748;23.278;2024-01-25T10:20:14;95900.86;;;8.40;53.57
79203;BME280;68630;42.748;23.278;2024-01-25T10:22:43;95892.75;;;8.36;52.53
79203;BME280;68630;42.748;23.278;2024-01-25T10:25:14;95898.97;;;8.55;52.50
79203;BME280;68630;42.748;23.278;2024-01-25T10:27:42;95901.55;;;8.37;53.14
79203;BME280;68630;42.748;23.278;2024-01-25T10:30:10;95904.62;;;8.31;54.18
79203;BME280;68630;42.748;23.278;2024-01-25T10:32:39;95898.86;;;8.44;53.49
79203;BME280;68630;42.748;23.278;2024-01-25T10:35:10;95905.49;;;8.57;52.66
79203;BME280;68630;42.748;23.278;2024-01-25T10:37:39;95897.29;;;8.60;52.80
79203;BME280;68630;42.748;23.278;2024-01-25T10:40:12;95886.14;;;8.68;52.40
79203;BME280;68630;42.748;23.278;2024-01-25T10:42:39;95895.33;;;8.56;53.26
79203;BME280;68630;42.748;23.278;2024-01-25T10:45:09;95886.63;;;8.67;53.21
79203;BME280;68630;42.748;23.278;2024-01-25T10:47:37;95888.28;;;8.37;53.89
79203;BME280;68630;42.748;23.278;2024-01-25T10:50:09;95880.77;;;8.05;54.81
79203;BME280;68630;42.748;23.278;2024-01-25T10:52:40;95876.87;;;8.29;54.36
79203;BME280;68630;42.748;23.278;2024-01-25T10:55:08;95868.38;;;8.05;54.93
79203;BME280;68630;42.748;23.278;2024-01-25T10:57:45;95873.80;;;8.48;53.79
79203;BME280;68630;42.748;23.278;2024-01-25T11:00:11;95860.05;;;8.36;54.90
79203;BME280;68630;42.748;23.278;2024-01-25T11:02:40;95863.05;;;8.44;54.80
79203;BME280;68630;42.748;23.278;2024-01-25T11:05:12;95867.23;;;8.72;53.64
79203;BME280;68630;42.748;23.278;2024-01-25T11:11:43;95850.62;;;9.30;51.75
79203;BME280;68630;42.748;23.278;2024-01-25T11:14:11;95845.50;;;9.15;51.89
79203;BME280;68630;42.748;23.278;2024-01-25T11:16:43;95837.67;;;9.25;50.81
79203;BME280;68630;42.748;23.278;2024-01-25T11:19:22;95833.77;;;9.12;50.73
79203;BME280;68630;42.748;23.278;2024-01-25T11:21:52;95818.86;;;8.74;52.03
79203;BME280;68630;42.748;23.278;2024-01-25T11:24:24;95814.41;;;8.80;51.66
79203;BME280;68630;42.748;23.278;2024-01-25T11:26:55;95817.02;;;8.69;51.92
79203;BME280;68630;42.748;23.278;2024-01-25T11:29:23;95823.64;;;8.38;52.09
79203;BME280;68630;42.748;23.278;2024-01-25T11:31:52;95814.40;;;8.25;52.59
79203;BME280;68630;42.748;23.278;2024-01-25T11:34:22;95818.97;;;8.10;52.55
79203;BME280;68630;42.748;23.278;2024-01-25T11:36:50;95812.80;;;7.65;53.09
79203;BME280;68630;42.748;23.278;2024-01-25T11:39:17;95804.38;;;7.53;53.82
79203;BME280;68630;42.748;23.278;2024-01-25T11:44:52;95812.38;;;7.46;53.62
79203;BME280;68630;42.748;23.278;2024-01-25T11:47:21;95818.08;;;7.40;53.82
79203;BME280;68630;42.748;23.278;2024-01-25T11:49:50;95822.94;;;7.33;53.80
79203;BME280;68630;42.748;23.278;2024-01-25T11:52:25;95820.57;;;7.48;53.30
79203;BME280;68630;42.748;23.278;2024-01-25T11:54:52;95819.25;;;7.36;53.64
79203;BME280;68630;42.748;23.278;2024-01-25T11:57:21;95820.08;;;7.36;54.46
79203;BME280;68630;42.748;23.278;2024-01-25T11:59:57;95805.36;;;7.45;54.59
79203;BME280;68630;42.748;23.278;2024-01-25T12:02:35;95810.67;;;7.71;53.78
79203;BME280;68630;42.748;23.278;2024-01-25T12:05:02;95832.27;;;7.72;53.74
79203;BME280;68630;42.748;23.278;2024-01-25T12:07:33;95817.41;;;7.69;53.89
79203;BME280;68630;42.748;23.278;2024-01-25T12:10:07;95814.56;;;7.59;54.39
79203;BME280;68630;42.748;23.278;2024-01-25T12:12:38;95811.38;;;7.54;55.04
79203;BME280;68630;42.748;23.278;2024-01-25T12:15:25;95806.64;;;7.52;54.90
79203;BME280;68630;42.748;23.278;2024-01-25T12:17:53;95805.62;;;7.35;55.16
79203;BME280;68630;42.748;23.278;2024-01-25T12:20:22;95788.30;;;7.23;55.32
79203;BME280;68630;42.748;23.278;2024-01-25T12:22:53;95795.66;;;7.38;55.08
79203;BME280;68630;42.748;23.278;2024-01-25T12:25:20;95786.39;;;7.25;55.08
79203;BME280;68630;42.748;23.278;2024-01-25T12:27:48;95786.87;;;7.38;55.14
79203;BME280;68630;42.748;23.278;2024-01-25T12:30:17;95782.95;;;7.69;54.52
79203;BME280;68630;42.748;23.278;2024-01-25T12:32:48;95787.72;;;7.90;54.28
79203;BME280;68630;42.748;23.278;2024-01-25T12:35:15;95784.33;;;8.00;53.66
79203;BME280;68630;42.748;23.278;2024-01-25T12:37:52;95785.72;;;8.24;53.25
79203;BME280;68630;42.748;23.278;2024-01-25T12:40:24;95772.17;;;8.22;52.91
79203;BME280;68630;42.748;23.278;2024-01-25T12:42:52;95765.14;;;8.34;52.63
79203;BME280;68630;42.748;23.278;2024-01-25T12:45:20;95757.92;;;8.49;52.20
79203;BME280;68630;42.748;23.278;2024-01-25T12:47:52;95762.32;;;8.61;51.69
79203;BME280;68630;42.748;23.278;2024-01-25T12:50:24;95740.51;;;8.69;51.23
79203;BME280;68630;42.748;23.278;2024-01-25T12:52:50;95724.44;;;8.89;50.92
79203;BME280;68630;42.748;23.278;2024-01-25T12:55:24;95716.41;;;9.02;50.20
79203;BME280;68630;42.748;23.278;2024-01-25T12:57:54;95708.17;;;8.99;49.46
79203;BME280;68630;42.748;23.278;2024-01-25T13:00:22;95713.14;;;8.98;50.05
79203;BME280;68630;42.748;23.278;2024-01-25T13:02:50;95702.63;;;9.02;49.62
79203;BME280;68630;42.748;23.278;2024-01-25T13:05:22;95710.44;;;8.92;50.46
79203;BME280;68630;42.748;23.278;2024-01-25T13:07:47;95709.43;;;8.76;50.00
79203;BME280;68630;42.748;23.278;2024-01-25T13:10:28;95712.43;;;8.48;50.94
79203;BME280;68630;42.748;23.278;2024-01-25T13:15:30;95711.38;;;8.50;51.48
79203;BME280;68630;42.748;23.278;2024-01-25T13:18:01;95712.94;;;8.53;52.25
79203;BME280;68630;42.748;23.278;2024-01-25T13:20:28;95722.41;;;8.25;52.74
79203;BME280;68630;42.748;23.278;2024-01-25T13:22:58;95731.23;;;8.26;52.64
79203;BME280;68630;42.748;23.278;2024-01-25T13:25:25;95732.69;;;8.12;53.12
79203;BME280;68630;42.748;23.278;2024-01-25T13:27:55;95729.93;;;8.13;54.01
79203;BME280;68630;42.748;23.278;2024-01-25T13:30:27;95738.20;;;8.09;52.70
79203;BME280;68630;42.748;23.278;2024-01-25T13:33:01;95718.89;;;8.01;53.30
79203;BME280;68630;42.748;23.278;2024-01-25T13:35:32;95726.14;;;8.04;52.89
79203;BME280;68630;42.748;23.278;2024-01-25T13:38:09;95703.59;;;7.86;53.62
79203;BME280;68630;42.748;23.278;2024-01-25T13:40:41;95697.59;;;7.71;52.87
79203;BME280;68630;42.748;23.278;2024-01-25T13:43:16;95706.70;;;7.67;53.70
79203;BME280;68630;42.748;23.278;2024-01-25T13:45:50;95709.28;;;7.74;52.18
79203;BME280;68630;42.748;23.278;2024-01-25T13:48:24;95718.31;;;7.72;53.07
79203;BME280;68630;42.748;23.278;2024-01-25T13:51:01;95721.23;;;7.61;53.98